sensor_id;sensor_type;location;lat;lon;timestamp;P1;durP1;ratioP1;P2;durP2;ratioP2
46721;SDS011;32455;43.430;23.136;2022-12-15T00:01:16;40.10;;;20.10;;
46721;SDS011;32455;43.430;23.136;2022-12-15T00:04:21;33.97;;;17.30;;
46721;SDS011;32455;43.430;23.136;2022-12-15T00:07:25;40.50;;;19.70;;
46721;SDS011;32455;43.430;23.136;2022-12-15T00:10:30;42.70;;;17.73;;
46721;SDS011;32455;43.430;23.136;2022-12-15T00:13:34;38.05;;;19.48;;
46721;SDS011;32455;43.430;23.136;2022-12-15T00:16:38;41.65;;;19.45;;
46721;SDS011;32455;43.430;23.136;2022-12-15T00:19:42;43.70;;;21.70;;
46721;SDS011;32455;43.430;23.136;2022-12-15T00:22:47;44.60;;;19.67;;
46721;SDS011;32455;43.430;23.136;2022-12-15T00:25:51;39.65;;;18.10;;
46721;SDS011;32455;43.430;23.136;2022-12-15T00:28:56;38.70;;;19.08;;
46721;SDS011;32455;43.430;23.136;2022-12-15T00:32:01;27.42;;;13.10;;
46721;SDS011;32455;43.430;23.136;2022-12-15T00:35:05;36.90;;;18.33;;
46721;SDS011;32455;43.430;23.136;2022-12-15T00:38:10;36.85;;;18.58;;
46721;SDS011;32455;43.430;23.136;2022-12-15T00:41:16;35.13;;;16.80;;
46721;SDS011;32455;43.430;23.136;2022-12-15T00:44:02;44.22;;;20.02;;
46721;SDS011;32455;43.430;23.136;2022-12-15T00:46:49;42.92;;;19.88;;
46721;SDS011;32455;43.430;23.136;2022-12-15T00:49:40;46.17;;;22.38;;
46721;SDS011;32455;43.430;23.136;2022-12-15T00:52:44;38.30;;;17.95;;
46721;SDS011;32455;43.430;23.136;2022-12-15T00:55:48;58.13;;;31.20;;
46721;SDS011;32455;43.430;23.136;2022-12-15T00:58:53;37.53;;;18.38;;
46721;SDS011;32455;43.430;23.136;2022-12-15T01:01:57;41.95;;;20.85;;
46721;SDS011;32455;43.430;23.136;2022-12-15T01:05:03;47.22;;;21.98;;
46721;SDS011;32455;43.430;23.136;2022-12-15T01:08:07;43.60;;;19.52;;
46721;SDS011;32455;43.430;23.136;2022-12-15T01:11:11;48.38;;;23.60;;
46721;SDS011;32455;43.430;23.136;2022-12-15T01:14:15;46.60;;;21.27;;
46721;SDS011;32455;43.430;23.136;2022-12-15T01:17:20;44.45;;;22.75;;
46721;SDS011;32455;43.430;23.136;2022-12-15T01:20:25;46.20;;;21.17;;
46721;SDS011;32455;43.430;23.136;2022-12-15T01:23:11;48.75;;;22.83;;
46721;SDS011;32455;43.430;23.136;2022-12-15T01:25:58;48.75;;;23.00;;
46721;SDS011;32455;43.430;23.136;2022-12-15T01:28:43;41.15;;;18.45;;
46721;SDS011;32455;43.430;23.136;2022-12-15T01:31:28;44.97;;;19.90;;
46721;SDS011;32455;43.430;23.136;2022-12-15T01:34:13;39.47;;;19.20;;
46721;SDS011;32455;43.430;23.136;2022-12-15T01:36:59;36.85;;;17.23;;
46721;SDS011;32455;43.430;23.136;2022-12-15T01:39:44;42.35;;;19.52;;
46721;SDS011;32455;43.430;23.136;2022-12-15T01:42:49;39.08;;;18.02;;
46721;SDS011;32455;43.430;23.136;2022-12-15T01:48:37;43.17;;;19.08;;
46721;SDS011;32455;43.430;23.136;2022-12-15T01:51:31;36.55;;;16.70;;
46721;SDS011;32455;43.430;23.136;2022-12-15T01:54:27;39.30;;;18.40;;
46721;SDS011;32455;43.430;23.136;2022-12-15T01:57:19;34.20;;;15.75;;
46721;SDS011;32455;43.430;23.136;2022-12-15T02:00:09;36.63;;;16.27;;
46721;SDS011;32455;43.430;23.136;2022-12-15T02:02:55;39.70;;;19.42;;
46721;SDS011;32455;43.430;23.136;2022-12-15T02:05:43;36.95;;;15.95;;
46721;SDS011;32455;43.430;23.136;2022-12-15T02:08:29;39.80;;;19.10;;
46721;SDS011;32455;43.430;23.136;2022-12-15T02:17:54;43.63;;;20.95;;
46721;SDS011;32455;43.430;23.136;2022-12-15T02:33:20;30.33;;;16.02;;
46721;SDS011;32455;43.430;23.136;2022-12-15T02:35:59;33.78;;;17.42;;
46721;SDS011;32455;43.430;23.136;2022-12-15T02:39:00;31.83;;;16.77;;
46721;SDS011;32455;43.430;23.136;2022-12-15T02:41:46;33.63;;;17.42;;
46721;SDS011;32455;43.430;23.136;2022-12-15T02:44:34;27.95;;;15.88;;
46721;SDS011;32455;43.430;23.136;2022-12-15T02:47:31;32.55;;;16.30;;
46721;SDS011;32455;43.430;23.136;2022-12-15T02:50:27;32.40;;;18.15;;
46721;SDS011;32455;43.430;23.136;2022-12-15T02:54:06;25.35;;;14.35;;
46721;SDS011;32455;43.430;23.136;2022-12-15T03:00:25;24.70;;;13.75;;
46721;SDS011;32455;43.430;23.136;2022-12-15T03:03:12;24.80;;;14.77;;
46721;SDS011;32455;43.430;23.136;2022-12-15T03:06:02;24.98;;;13.73;;
46721;SDS011;32455;43.430;23.136;2022-12-15T03:08:47;26.90;;;14.60;;
46721;SDS011;32455;43.430;23.136;2022-12-15T03:11:34;25.15;;;13.70;;
46721;SDS011;32455;43.430;23.136;2022-12-15T03:14:20;24.30;;;13.15;;
46721;SDS011;32455;43.430;23.136;2022-12-15T03:17:06;22.00;;;13.63;;
46721;SDS011;32455;43.430;23.136;2022-12-15T03:19:52;19.25;;;11.60;;
46721;SDS011;32455;43.430;23.136;2022-12-15T03:22:38;22.88;;;13.05;;
46721;SDS011;32455;43.430;23.136;2022-12-15T03:25:24;20.75;;;12.18;;
46721;SDS011;32455;43.430;23.136;2022-12-15T03:28:09;19.80;;;13.18;;
46721;SDS011;32455;43.430;23.136;2022-12-15T03:30:55;21.00;;;12.18;;
46721;SDS011;32455;43.430;23.136;2022-12-15T03:33:40;22.15;;;11.75;;
46721;SDS011;32455;43.430;23.136;2022-12-15T03:36:25;20.60;;;11.40;;
46721;SDS011;32455;43.430;23.136;2022-12-15T03:39:12;19.55;;;11.68;;
46721;SDS011;32455;43.430;23.136;2022-12-15T03:41:58;19.73;;;11.77;;
46721;SDS011;32455;43.430;23.136;2022-12-15T03:44:43;22.40;;;11.90;;
46721;SDS011;32455;43.430;23.136;2022-12-15T03:47:29;15.20;;;10.43;;
46721;SDS011;32455;43.430;23.136;2022-12-15T03:50:15;16.45;;;10.90;;
46721;SDS011;32455;43.430;23.136;2022-12-15T03:53:03;15.80;;;10.43;;
46721;SDS011;32455;43.430;23.136;2022-12-15T03:55:49;16.50;;;9.77;;
46721;SDS011;32455;43.430;23.136;2022-12-15T03:58:35;14.18;;;9.50;;
46721;SDS011;32455;43.430;23.136;2022-12-15T04:04:06;16.08;;;10.13;;
46721;SDS011;32455;43.430;23.136;2022-12-15T04:06:51;16.17;;;10.45;;
46721;SDS011;32455;43.430;23.136;2022-12-15T04:09:36;18.77;;;10.60;;
46721;SDS011;32455;43.430;23.136;2022-12-15T04:12:22;19.88;;;10.52;;
46721;SDS011;32455;43.430;23.136;2022-12-15T04:15:08;17.45;;;11.27;;
46721;SDS011;32455;43.430;23.136;2022-12-15T04:17:54;18.20;;;10.40;;
46721;SDS011;32455;43.430;23.136;2022-12-15T04:20:40;16.58;;;9.45;;
46721;SDS011;32455;43.430;23.136;2022-12-15T04:23:26;16.67;;;9.52;;
46721;SDS011;32455;43.430;23.136;2022-12-15T04:26:11;20.15;;;11.15;;
46721;SDS011;32455;43.430;23.136;2022-12-15T04:29:15;17.65;;;9.98;;
46721;SDS011;32455;43.430;23.136;2022-12-15T04:32:21;16.55;;;9.88;;
46721;SDS011;32455;43.430;23.136;2022-12-15T04:35:25;18.35;;;10.70;;
46721;SDS011;32455;43.430;23.136;2022-12-15T04:38:29;19.73;;;11.65;;
46721;SDS011;32455;43.430;23.136;2022-12-15T04:41:33;17.92;;;10.98;;
46721;SDS011;32455;43.430;23.136;2022-12-15T04:44:38;16.45;;;9.88;;
46721;SDS011;32455;43.430;23.136;2022-12-15T04:47:42;17.52;;;10.02;;
46721;SDS011;32455;43.430;23.136;2022-12-15T04:50:48;17.90;;;10.50;;
46721;SDS011;32455;43.430;23.136;2022-12-15T04:53:52;13.95;;;9.25;;
46721;SDS011;32455;43.430;23.136;2022-12-15T04:56:56;18.90;;;10.18;;
46721;SDS011;32455;43.430;23.136;2022-12-15T05:00:01;16.30;;;10.60;;
46721;SDS011;32455;43.430;23.136;2022-12-15T05:03:06;18.08;;;11.15;;
46721;SDS011;32455;43.430;23.136;2022-12-15T05:06:11;20.40;;;11.90;;
46721;SDS011;32455;43.430;23.136;2022-12-15T05:09:15;17.52;;;10.90;;
46721;SDS011;32455;43.430;23.136;2022-12-15T05:12:20;18.42;;;11.65;;
46721;SDS011;32455;43.430;23.136;2022-12-15T05:15:24;22.48;;;12.02;;
46721;SDS011;32455;43.430;23.136;2022-12-15T05:18:28;18.25;;;12.07;;
46721;SDS011;32455;43.430;23.136;2022-12-15T05:21:32;17.88;;;10.52;;
46721;SDS011;32455;43.430;23.136;2022-12-15T05:24:36;16.98;;;10.60;;
46721;SDS011;32455;43.430;23.136;2022-12-15T05:27:40;20.67;;;11.02;;
46721;SDS011;32455;43.430;23.136;2022-12-15T05:30:45;15.35;;;9.63;;
46721;SDS011;32455;43.430;23.136;2022-12-15T05:33:49;17.70;;;10.27;;
46721;SDS011;32455;43.430;23.136;2022-12-15T05:36:34;17.17;;;10.55;;
46721;SDS011;32455;43.430;23.136;2022-12-15T05:39:20;17.08;;;10.43;;
46721;SDS011;32455;43.430;23.136;2022-12-15T05:42:05;18.35;;;10.07;;
46721;SDS011;32455;43.430;23.136;2022-12-15T05:44:51;16.63;;;11.20;;
46721;SDS011;32455;43.430;23.136;2022-12-15T05:47:36;16.20;;;10.32;;
46721;SDS011;32455;43.430;23.136;2022-12-15T05:50:22;16.25;;;9.63;;
46721;SDS011;32455;43.430;23.136;2022-12-15T05:53:08;16.27;;;10.77;;
46721;SDS011;32455;43.430;23.136;2022-12-15T05:55:59;17.50;;;9.98;;
46721;SDS011;32455;43.430;23.136;2022-12-15T05:58:45;19.48;;;10.63;;
46721;SDS011;32455;43.430;23.136;2022-12-15T06:01:31;17.85;;;10.32;;
46721;SDS011;32455;43.430;23.136;2022-12-15T06:04:19;18.05;;;11.18;;
46721;SDS011;32455;43.430;23.136;2022-12-15T06:07:04;18.08;;;10.18;;
46721;SDS011;32455;43.430;23.136;2022-12-15T06:09:50;17.42;;;10.43;;
46721;SDS011;32455;43.430;23.136;2022-12-15T06:12:36;18.92;;;10.80;;
46721;SDS011;32455;43.430;23.136;2022-12-15T06:15:21;17.67;;;11.10;;
46721;SDS011;32455;43.430;23.136;2022-12-15T06:18:07;22.98;;;13.00;;
46721;SDS011;32455;43.430;23.136;2022-12-15T06:20:58;20.88;;;12.00;;
46721;SDS011;32455;43.430;23.136;2022-12-15T06:23:45;19.08;;;9.93;;
46721;SDS011;32455;43.430;23.136;2022-12-15T06:26:36;18.90;;;10.95;;
46721;SDS011;32455;43.430;23.136;2022-12-15T06:29:22;21.38;;;11.25;;
46721;SDS011;32455;43.430;23.136;2022-12-15T06:32:07;19.92;;;11.55;;
46721;SDS011;32455;43.430;23.136;2022-12-15T06:34:52;19.90;;;11.32;;
46721;SDS011;32455;43.430;23.136;2022-12-15T06:37:37;20.50;;;11.63;;
46721;SDS011;32455;43.430;23.136;2022-12-15T06:40:23;15.95;;;10.10;;
46721;SDS011;32455;43.430;23.136;2022-12-15T06:43:08;20.42;;;10.07;;
46721;SDS011;32455;43.430;23.136;2022-12-15T06:45:53;16.45;;;10.30;;
46721;SDS011;32455;43.430;23.136;2022-12-15T06:48:39;23.65;;;11.45;;
46721;SDS011;32455;43.430;23.136;2022-12-15T06:51:28;21.77;;;11.55;;
46721;SDS011;32455;43.430;23.136;2022-12-15T06:54:14;21.20;;;12.18;;
46721;SDS011;32455;43.430;23.136;2022-12-15T06:56:59;21.80;;;12.40;;
46721;SDS011;32455;43.430;23.136;2022-12-15T06:59:45;21.55;;;11.82;;
46721;SDS011;32455;43.430;23.136;2022-12-15T07:02:31;23.98;;;12.00;;
46721;SDS011;32455;43.430;23.136;2022-12-15T07:05:17;23.17;;;10.88;;
46721;SDS011;32455;43.430;23.136;2022-12-15T07:08:03;18.65;;;10.73;;
46721;SDS011;32455;43.430;23.136;2022-12-15T07:10:48;21.85;;;11.75;;
46721;SDS011;32455;43.430;23.136;2022-12-15T07:13:34;21.30;;;11.48;;
46721;SDS011;32455;43.430;23.136;2022-12-15T07:16:18;18.77;;;10.27;;
46721;SDS011;32455;43.430;23.136;2022-12-15T07:19:04;15.13;;;9.38;;
46721;SDS011;32455;43.430;23.136;2022-12-15T07:21:49;13.95;;;8.75;;
46721;SDS011;32455;43.430;23.136;2022-12-15T07:24:35;16.95;;;9.32;;
46721;SDS011;32455;43.430;23.136;2022-12-15T07:27:20;16.02;;;8.95;;
46721;SDS011;32455;43.430;23.136;2022-12-15T07:30:05;15.23;;;8.45;;
46721;SDS011;32455;43.430;23.136;2022-12-15T07:32:52;17.20;;;9.30;;
46721;SDS011;32455;43.430;23.136;2022-12-15T07:35:38;14.20;;;9.25;;
46721;SDS011;32455;43.430;23.136;2022-12-15T07:38:23;15.52;;;8.23;;
46721;SDS011;32455;43.430;23.136;2022-12-15T07:41:10;16.52;;;9.15;;
46721;SDS011;32455;43.430;23.136;2022-12-15T07:43:56;15.82;;;9.75;;
46721;SDS011;32455;43.430;23.136;2022-12-15T07:46:42;16.92;;;10.80;;
46721;SDS011;32455;43.430;23.136;2022-12-15T07:49:31;20.00;;;10.88;;
46721;SDS011;32455;43.430;23.136;2022-12-15T07:52:16;15.80;;;9.68;;
46721;SDS011;32455;43.430;23.136;2022-12-15T07:55:02;18.35;;;9.95;;
46721;SDS011;32455;43.430;23.136;2022-12-15T07:57:49;17.55;;;10.48;;
46721;SDS011;32455;43.430;23.136;2022-12-15T08:00:34;16.77;;;10.38;;
46721;SDS011;32455;43.430;23.136;2022-12-15T08:03:20;17.88;;;10.23;;
46721;SDS011;32455;43.430;23.136;2022-12-15T08:06:10;14.73;;;9.77;;
46721;SDS011;32455;43.430;23.136;2022-12-15T08:08:57;14.90;;;9.73;;
46721;SDS011;32455;43.430;23.136;2022-12-15T08:11:42;18.15;;;10.13;;
46721;SDS011;32455;43.430;23.136;2022-12-15T08:14:28;15.75;;;9.13;;
46721;SDS011;32455;43.430;23.136;2022-12-15T08:17:13;15.23;;;9.77;;
46721;SDS011;32455;43.430;23.136;2022-12-15T08:19:59;14.98;;;9.63;;
46721;SDS011;32455;43.430;23.136;2022-12-15T08:22:45;16.55;;;11.00;;
46721;SDS011;32455;43.430;23.136;2022-12-15T08:25:30;17.88;;;10.65;;
46721;SDS011;32455;43.430;23.136;2022-12-15T08:28:16;15.88;;;10.77;;
46721;SDS011;32455;43.430;23.136;2022-12-15T08:31:04;16.35;;;10.15;;
46721;SDS011;32455;43.430;23.136;2022-12-15T08:33:54;14.52;;;9.70;;
46721;SDS011;32455;43.430;23.136;2022-12-15T08:36:40;16.20;;;9.68;;
46721;SDS011;32455;43.430;23.136;2022-12-15T08:39:25;12.88;;;9.35;;
46721;SDS011;32455;43.430;23.136;2022-12-15T08:42:10;13.32;;;9.73;;
46721;SDS011;32455;43.430;23.136;2022-12-15T08:44:55;14.43;;;9.25;;
46721;SDS011;32455;43.430;23.136;2022-12-15T08:47:41;14.90;;;8.85;;
46721;SDS011;32455;43.430;23.136;2022-12-15T08:50:26;15.85;;;9.52;;
46721;SDS011;32455;43.430;23.136;2022-12-15T08:53:11;13.13;;;8.48;;
46721;SDS011;32455;43.430;23.136;2022-12-15T08:56:05;13.48;;;8.77;;
46721;SDS011;32455;43.430;23.136;2022-12-15T08:58:56;15.32;;;10.30;;
46721;SDS011;32455;43.430;23.136;2022-12-15T09:01:44;15.73;;;9.07;;
46721;SDS011;32455;43.430;23.136;2022-12-15T09:04:29;14.50;;;10.05;;
46721;SDS011;32455;43.430;23.136;2022-12-15T09:07:15;16.33;;;10.27;;
46721;SDS011;32455;43.430;23.136;2022-12-15T09:10:00;14.65;;;9.57;;
46721;SDS011;32455;43.430;23.136;2022-12-15T09:12:46;17.38;;;10.68;;
46721;SDS011;32455;43.430;23.136;2022-12-15T09:15:30;13.93;;;9.15;;
46721;SDS011;32455;43.430;23.136;2022-12-15T09:18:15;12.27;;;8.48;;
46721;SDS011;32455;43.430;23.136;2022-12-15T09:21:02;10.55;;;7.43;;
46721;SDS011;32455;43.430;23.136;2022-12-15T09:23:50;12.90;;;8.15;;
46721;SDS011;32455;43.430;23.136;2022-12-15T09:26:38;11.48;;;7.25;;
46721;SDS011;32455;43.430;23.136;2022-12-15T09:29:24;11.25;;;7.22;;
46721;SDS011;32455;43.430;23.136;2022-12-15T09:32:10;11.20;;;7.80;;
46721;SDS011;32455;43.430;23.136;2022-12-15T09:34:57;11.48;;;8.00;;
46721;SDS011;32455;43.430;23.136;2022-12-15T09:37:43;11.27;;;8.52;;
46721;SDS011;32455;43.430;23.136;2022-12-15T09:40:29;12.30;;;6.95;;
46721;SDS011;32455;43.430;23.136;2022-12-15T09:43:21;11.32;;;8.00;;
46721;SDS011;32455;43.430;23.136;2022-12-15T09:46:19;11.93;;;7.75;;
46721;SDS011;32455;43.430;23.136;2022-12-15T09:49:09;14.18;;;8.20;;
46721;SDS011;32455;43.430;23.136;2022-12-15T09:52:04;15.40;;;9.60;;
46721;SDS011;32455;43.430;23.136;2022-12-15T09:54:55;14.15;;;8.95;;
46721;SDS011;32455;43.430;23.136;2022-12-15T09:57:58;10.60;;;7.55;;
46721;SDS011;32455;43.430;23.136;2022-12-15T10:00:49;14.00;;;7.47;;
46721;SDS011;32455;43.430;23.136;2022-12-15T10:06:26;15.70;;;9.25;;
46721;SDS011;32455;43.430;23.136;2022-12-15T10:09:25;15.60;;;9.88;;
46721;SDS011;32455;43.430;23.136;2022-12-15T10:12:19;17.20;;;10.95;;
46721;SDS011;32455;43.430;23.136;2022-12-15T10:15:16;18.45;;;11.55;;
46721;SDS011;32455;43.430;23.136;2022-12-15T10:21:08;16.55;;;10.40;;
46721;SDS011;32455;43.430;23.136;2022-12-15T10:24:11;16.70;;;11.25;;
46721;SDS011;32455;43.430;23.136;2022-12-15T10:30:11;14.30;;;8.55;;
46721;SDS011;32455;43.430;23.136;2022-12-15T10:36:14;15.88;;;10.13;;
46721;SDS011;32455;43.430;23.136;2022-12-15T10:39:00;12.63;;;8.77;;
46721;SDS011;32455;43.430;23.136;2022-12-15T10:41:45;12.45;;;8.35;;
46721;SDS011;32455;43.430;23.136;2022-12-15T10:44:56;10.88;;;7.95;;
46721;SDS011;32455;43.430;23.136;2022-12-15T10:47:42;10.23;;;7.47;;
46721;SDS011;32455;43.430;23.136;2022-12-15T10:50:50;14.15;;;8.10;;
46721;SDS011;32455;43.430;23.136;2022-12-15T10:53:40;16.10;;;8.70;;
46721;SDS011;32455;43.430;23.136;2022-12-15T10:56:32;13.43;;;8.35;;
46721;SDS011;32455;43.430;23.136;2022-12-15T10:59:23;11.55;;;7.70;;
46721;SDS011;32455;43.430;23.136;2022-12-15T11:08:14;11.15;;;6.82;;
46721;SDS011;32455;43.430;23.136;2022-12-15T11:11:00;9.85;;;7.38;;
46721;SDS011;32455;43.430;23.136;2022-12-15T11:14:08;7.90;;;5.90;;
46721;SDS011;32455;43.430;23.136;2022-12-15T11:17:07;9.98;;;6.55;;
46721;SDS011;32455;43.430;23.136;2022-12-15T11:19:54;8.10;;;6.25;;
46721;SDS011;32455;43.430;23.136;2022-12-15T11:22:57;9.70;;;6.35;;
46721;SDS011;32455;43.430;23.136;2022-12-15T11:26:24;11.07;;;6.97;;
46721;SDS011;32455;43.430;23.136;2022-12-15T11:32:34;11.43;;;6.68;;
46721;SDS011;32455;43.430;23.136;2022-12-15T11:35:24;9.88;;;6.93;;
46721;SDS011;32455;43.430;23.136;2022-12-15T11:51:50;9.05;;;6.57;;
46721;SDS011;32455;43.430;23.136;2022-12-15T11:54:52;9.65;;;6.47;;
46721;SDS011;32455;43.430;23.136;2022-12-15T11:57:55;11.00;;;7.15;;
46721;SDS011;32455;43.430;23.136;2022-12-15T12:01:08;7.68;;;5.60;;
46721;SDS011;32455;43.430;23.136;2022-12-15T12:04:46;6.55;;;5.05;;
46721;SDS011;32455;43.430;23.136;2022-12-15T12:20:20;9.00;;;6.50;;
46721;SDS011;32455;43.430;23.136;2022-12-15T12:23:12;9.00;;;6.47;;
46721;SDS011;32455;43.430;23.136;2022-12-15T12:38:01;7.07;;;5.32;;
46721;SDS011;32455;43.430;23.136;2022-12-15T12:44:36;11.25;;;7.15;;
46721;SDS011;32455;43.430;23.136;2022-12-15T12:47:23;8.93;;;6.05;;
46721;SDS011;32455;43.430;23.136;2022-12-15T12:50:14;7.10;;;5.70;;
46721;SDS011;32455;43.430;23.136;2022-12-15T12:53:03;6.82;;;5.40;;
46721;SDS011;32455;43.430;23.136;2022-12-15T12:55:49;7.85;;;5.75;;
46721;SDS011;32455;43.430;23.136;2022-12-15T12:58:38;6.43;;;5.00;;
46721;SDS011;32455;43.430;23.136;2022-12-15T13:01:32;7.95;;;5.47;;
46721;SDS011;32455;43.430;23.136;2022-12-15T13:07:31;12.65;;;7.75;;
46721;SDS011;32455;43.430;23.136;2022-12-15T13:10:24;8.82;;;6.20;;
46721;SDS011;32455;43.430;23.136;2022-12-15T13:16:18;8.25;;;5.95;;
46721;SDS011;32455;43.430;23.136;2022-12-15T13:19:09;7.82;;;5.70;;
46721;SDS011;32455;43.430;23.136;2022-12-15T13:21:55;7.95;;;5.43;;
46721;SDS011;32455;43.430;23.136;2022-12-15T13:24:45;8.27;;;5.20;;
46721;SDS011;32455;43.430;23.136;2022-12-15T13:27:35;10.13;;;6.10;;
46721;SDS011;32455;43.430;23.136;2022-12-15T13:30:22;9.70;;;6.80;;
46721;SDS011;32455;43.430;23.136;2022-12-15T13:33:15;6.57;;;5.45;;
46721;SDS011;32455;43.430;23.136;2022-12-15T13:36:02;7.72;;;5.25;;
46721;SDS011;32455;43.430;23.136;2022-12-15T13:38:52;9.40;;;5.60;;
46721;SDS011;32455;43.430;23.136;2022-12-15T13:44:27;6.68;;;5.22;;
46721;SDS011;32455;43.430;23.136;2022-12-15T13:47:32;7.18;;;5.32;;
46721;SDS011;32455;43.430;23.136;2022-12-15T13:50:29;8.98;;;5.85;;
46721;SDS011;32455;43.430;23.136;2022-12-15T13:53:19;13.77;;;9.73;;
46721;SDS011;32455;43.430;23.136;2022-12-15T13:59:39;13.38;;;9.30;;
46721;SDS011;32455;43.430;23.136;2022-12-15T14:07:58;11.75;;;7.47;;
46721;SDS011;32455;43.430;23.136;2022-12-15T14:10:48;12.00;;;7.93;;
46721;SDS011;32455;43.430;23.136;2022-12-15T14:13:36;10.68;;;6.93;;
46721;SDS011;32455;43.430;23.136;2022-12-15T14:16:30;15.75;;;9.55;;
46721;SDS011;32455;43.430;23.136;2022-12-15T14:19:18;29.17;;;14.43;;
46721;SDS011;32455;43.430;23.136;2022-12-15T14:22:16;20.00;;;11.45;;
46721;SDS011;32455;43.430;23.136;2022-12-15T14:25:21;13.07;;;6.40;;
46721;SDS011;32455;43.430;23.136;2022-12-15T14:28:22;7.88;;;6.00;;
46721;SDS011;32455;43.430;23.136;2022-12-15T14:31:25;8.90;;;5.28;;
46721;SDS011;32455;43.430;23.136;2022-12-15T14:34:14;8.88;;;5.60;;
46721;SDS011;32455;43.430;23.136;2022-12-15T14:37:10;8.05;;;5.35;;
46721;SDS011;32455;43.430;23.136;2022-12-15T14:40:02;7.35;;;5.15;;
46721;SDS011;32455;43.430;23.136;2022-12-15T14:42:47;10.02;;;6.35;;
46721;SDS011;32455;43.430;23.136;2022-12-15T14:45:33;9.48;;;6.25;;
46721;SDS011;32455;43.430;23.136;2022-12-15T14:48:21;9.50;;;6.35;;
46721;SDS011;32455;43.430;23.136;2022-12-15T14:51:12;8.70;;;6.18;;
46721;SDS011;32455;43.430;23.136;2022-12-15T14:53:58;11.65;;;6.75;;
46721;SDS011;32455;43.430;23.136;2022-12-15T14:56:44;9.50;;;6.88;;
46721;SDS011;32455;43.430;23.136;2022-12-15T14:59:33;8.38;;;6.72;;
46721;SDS011;32455;43.430;23.136;2022-12-15T15:02:23;9.57;;;6.65;;
46721;SDS011;32455;43.430;23.136;2022-12-15T15:05:23;10.53;;;6.43;;
46721;SDS011;32455;43.430;23.136;2022-12-15T15:08:15;10.55;;;6.95;;
46721;SDS011;32455;43.430;23.136;2022-12-15T15:14:27;12.98;;;7.63;;
46721;SDS011;32455;43.430;23.136;2022-12-15T15:17:58;13.13;;;8.23;;
46721;SDS011;32455;43.430;23.136;2022-12-15T15:20:47;11.23;;;7.82;;
46721;SDS011;32455;43.430;23.136;2022-12-15T15:23:40;13.50;;;8.55;;
46721;SDS011;32455;43.430;23.136;2022-12-15T15:26:26;12.50;;;8.63;;
46721;SDS011;32455;43.430;23.136;2022-12-15T15:32:47;16.33;;;10.60;;
46721;SDS011;32455;43.430;23.136;2022-12-15T15:35:36;40.10;;;18.48;;
46721;SDS011;32455;43.430;23.136;2022-12-15T15:44:01;9.77;;;7.20;;
46721;SDS011;32455;43.430;23.136;2022-12-15T15:46:50;10.10;;;6.10;;
46721;SDS011;32455;43.430;23.136;2022-12-15T15:49:35;9.32;;;7.32;;
46721;SDS011;32455;43.430;23.136;2022-12-15T15:52:21;10.88;;;6.88;;
46721;SDS011;32455;43.430;23.136;2022-12-15T15:55:07;8.38;;;5.95;;
46721;SDS011;32455;43.430;23.136;2022-12-15T15:57:57;10.35;;;6.93;;
46721;SDS011;32455;43.430;23.136;2022-12-15T16:00:43;9.05;;;5.82;;
46721;SDS011;32455;43.430;23.136;2022-12-15T16:03:28;22.98;;;11.30;;
46721;SDS011;32455;43.430;23.136;2022-12-15T16:06:18;39.67;;;18.98;;
46721;SDS011;32455;43.430;23.136;2022-12-15T16:09:08;23.30;;;12.95;;
46721;SDS011;32455;43.430;23.136;2022-12-15T16:11:57;12.43;;;9.10;;
46721;SDS011;32455;43.430;23.136;2022-12-15T16:14:44;8.27;;;6.18;;
46721;SDS011;32455;43.430;23.136;2022-12-15T16:17:29;10.20;;;6.03;;
46721;SDS011;32455;43.430;23.136;2022-12-15T16:20:15;9.85;;;6.22;;
46721;SDS011;32455;43.430;23.136;2022-12-15T16:23:03;9.60;;;6.45;;
46721;SDS011;32455;43.430;23.136;2022-12-15T16:25:57;12.20;;;7.75;;
46721;SDS011;32455;43.430;23.136;2022-12-15T16:28:43;10.20;;;5.70;;
46721;SDS011;32455;43.430;23.136;2022-12-15T16:31:33;11.93;;;7.30;;
46721;SDS011;32455;43.430;23.136;2022-12-15T16:34:23;12.13;;;6.95;;
46721;SDS011;32455;43.430;23.136;2022-12-15T16:37:16;11.00;;;6.30;;
46721;SDS011;32455;43.430;23.136;2022-12-15T16:40:43;9.55;;;6.47;;
46721;SDS011;32455;43.430;23.136;2022-12-15T16:43:23;9.88;;;5.63;;
46721;SDS011;32455;43.430;23.136;2022-12-15T16:46:13;9.07;;;5.65;;
46721;SDS011;32455;43.430;23.136;2022-12-15T16:48:59;8.73;;;5.55;;
46721;SDS011;32455;43.430;23.136;2022-12-15T16:51:45;11.27;;;6.57;;
46721;SDS011;32455;43.430;23.136;2022-12-15T16:54:32;9.98;;;6.35;;
46721;SDS011;32455;43.430;23.136;2022-12-15T16:57:18;11.07;;;7.18;;
46721;SDS011;32455;43.430;23.136;2022-12-15T17:00:12;10.25;;;6.65;;
46721;SDS011;32455;43.430;23.136;2022-12-15T17:02:59;11.07;;;6.85;;
46721;SDS011;32455;43.430;23.136;2022-12-15T17:05:48;10.77;;;6.55;;
46721;SDS011;32455;43.430;23.136;2022-12-15T17:11:25;10.40;;;6.32;;
46721;SDS011;32455;43.430;23.136;2022-12-15T17:14:12;10.32;;;6.80;;
46721;SDS011;32455;43.430;23.136;2022-12-15T17:16:57;12.68;;;7.32;;
46721;SDS011;32455;43.430;23.136;2022-12-15T17:19:43;11.02;;;6.40;;
46721;SDS011;32455;43.430;23.136;2022-12-15T17:22:29;12.10;;;7.47;;
46721;SDS011;32455;43.430;23.136;2022-12-15T17:25:18;13.32;;;7.43;;
46721;SDS011;32455;43.430;23.136;2022-12-15T17:28:09;10.93;;;6.88;;
46721;SDS011;32455;43.430;23.136;2022-12-15T17:31:11;14.38;;;8.07;;
46721;SDS011;32455;43.430;23.136;2022-12-15T17:34:47;37.15;;;14.73;;
46721;SDS011;32455;43.430;23.136;2022-12-15T17:37:11;89.05;;;34.47;;
46721;SDS011;32455;43.430;23.136;2022-12-15T17:39:58;95.13;;;36.55;;
46721;SDS011;32455;43.430;23.136;2022-12-15T17:42:43;28.05;;;13.98;;
46721;SDS011;32455;43.430;23.136;2022-12-15T17:45:42;21.25;;;11.30;;
46721;SDS011;32455;43.430;23.136;2022-12-15T17:48:27;13.77;;;9.07;;
46721;SDS011;32455;43.430;23.136;2022-12-15T17:51:16;15.02;;;8.90;;
46721;SDS011;32455;43.430;23.136;2022-12-15T17:54:02;15.85;;;9.43;;
46721;SDS011;32455;43.430;23.136;2022-12-15T17:56:48;18.23;;;11.73;;
46721;SDS011;32455;43.430;23.136;2022-12-15T17:59:34;15.63;;;10.60;;
46721;SDS011;32455;43.430;23.136;2022-12-15T18:02:20;14.40;;;10.27;;
46721;SDS011;32455;43.430;23.136;2022-12-15T18:05:05;16.15;;;9.23;;
46721;SDS011;32455;43.430;23.136;2022-12-15T18:08:02;17.23;;;9.60;;
46721;SDS011;32455;43.430;23.136;2022-12-15T18:10:54;14.93;;;9.52;;
46721;SDS011;32455;43.430;23.136;2022-12-15T18:13:41;16.60;;;9.48;;
46721;SDS011;32455;43.430;23.136;2022-12-15T18:16:26;15.75;;;10.25;;
46721;SDS011;32455;43.430;23.136;2022-12-15T18:19:12;17.73;;;9.23;;
46721;SDS011;32455;43.430;23.136;2022-12-15T18:21:58;17.52;;;10.65;;
46721;SDS011;32455;43.430;23.136;2022-12-15T18:24:43;17.17;;;10.02;;
46721;SDS011;32455;43.430;23.136;2022-12-15T18:27:30;17.83;;;9.98;;
46721;SDS011;32455;43.430;23.136;2022-12-15T18:30:16;16.80;;;9.45;;
46721;SDS011;32455;43.430;23.136;2022-12-15T18:33:07;13.52;;;8.95;;
46721;SDS011;32455;43.430;23.136;2022-12-15T18:35:55;14.55;;;8.65;;
46721;SDS011;32455;43.430;23.136;2022-12-15T18:38:40;17.05;;;9.82;;
46721;SDS011;32455;43.430;23.136;2022-12-15T18:41:26;15.60;;;9.45;;
46721;SDS011;32455;43.430;23.136;2022-12-15T18:44:17;11.90;;;6.63;;